Ana Sayfa
METAR-TAF:

METAR-TAF

Havaalanları :

Baltimore, Maryland, Amerika Birleşik Devletleri

Enlem: 39-20N, Boylam: 076-25W, yükseklik: 7 m

Güncel hava durumu gözlemi

Rapor saat 14:54 UTC de 23 dakika önce yapıldı.
Rüzgar batıdan 10 kt ve 16 kt'a kadar ani rüzgarlar
Sıcaklık 21°C
Nem 49%
Basınç 1020 hPa
Görüş mesafesi: 16.1 km
Açık gökyüzü

METAR: KMTN 241454Z 27010G16KT 10SM CLR 21/10 A3012

Saat: 11:17 (15:17 UTC)

Tahmin

Rapor saat 14:59 UTC de 18 dakika önce yapıldı.
Ayın 24'si saat 15 UTC'den ayın 25'si saat 12 UTC'ye kadar geçerli Tahmin
Rüzgar batıdan 10 kt ve 16 kt'a kadar ani rüzgarlar
Görüş mesafesi: 10 km
25000 ft yükseklikte az bulutlu
Ayın 24'si saat 1800 UTC'den
Rüzgar kuzeybatıdan 3 kt
Görüş mesafesi: 10 km
Açık gökyüzü
Ayın 25'si saat 0100 UTC'den
Rüzgar kuzeydan kt
Görüş mesafesi: 10 km
Açık gökyüzü

TAF: KMTN 241459Z 2415/2512 27010G16KT P6SM FEW250 FM241800 31003KT P6SM SKC FM250100 00000KT P6SM SKC

4.000'den fazla havaalanı için hava durumu gözlemleri ve tahminleri (METAR ve TAF raporları).

Kullanılabilir istasyonlar harita üzerinde sarı ve kırmızı noktalarla gösterilir.

İstasyonun adını görmek için fareyi noktanın üzerinde gezdirin.

Sonrasında hava gözlem ve tahminlerini görmek için tıklayın.

Haritayı değiştirmek için: yaklaştırmak için siyah artı işaretli yeşil düğmeye ve uzaklaştırmak için de eksi işaretli düğmeye hızla tıklayın; bitişik haritalar için yeşil okları kullanın.


METAR-TAF: